createdAt,value
2018-02-16T00:01:57.321Z,9.00
2018-02-16T00:04:24.752Z,9.10
2018-02-16T00:06:52.172Z,9.00
2018-02-16T00:09:19.605Z,8.90
2018-02-16T00:11:47.035Z,9.00
2018-02-16T00:14:15.220Z,9.10
2018-02-16T00:16:43.417Z,9.10
2018-02-16T00:19:10.845Z,9.00
2018-02-16T00:21:39.041Z,9.00
2018-02-16T00:24:06.455Z,9.00
2018-02-16T00:26:33.884Z,8.90
2018-02-16T00:29:01.325Z,8.60
2018-02-16T00:31:28.736Z,8.80
2018-02-16T00:33:57.848Z,8.80
2018-02-16T00:36:26.041Z,8.90
2018-02-16T00:38:53.465Z,8.80
2018-02-16T00:41:20.884Z,8.70
2018-02-16T00:43:48.312Z,8.80
2018-02-16T00:46:15.736Z,8.90
2018-02-16T00:48:43.927Z,8.70
2018-02-16T00:51:11.360Z,8.70
2018-02-16T00:53:38.789Z,8.80
2018-02-16T00:56:06.216Z,8.60
2018-02-16T00:58:33.635Z,8.50
2018-02-16T01:01:01.061Z,8.60
2018-02-16T01:03:28.492Z,8.70
2018-02-16T01:05:56.027Z,8.50
2018-02-16T01:08:24.213Z,8.60
2018-02-16T01:10:51.644Z,8.60
2018-02-16T01:13:19.067Z,8.40
2018-02-16T01:15:46.504Z,8.20
2018-02-16T01:18:13.921Z,8.40
2018-02-16T01:20:42.126Z,8.30
2018-02-16T01:23:09.546Z,8.30
2018-02-16T01:25:36.981Z,8.50
2018-02-16T01:28:04.421Z,8.40
2018-02-16T01:30:31.849Z,8.20
2018-02-16T01:32:59.271Z,8.20
2018-02-16T01:35:26.702Z,8.00
2018-02-16T01:37:54.129Z,8.00
2018-02-16T01:40:21.556Z,7.80
2018-02-16T01:42:49.745Z,7.70
2018-02-16T01:45:17.171Z,7.70
2018-02-16T01:47:44.601Z,7.70
2018-02-16T01:50:12.038Z,7.80
2018-02-16T01:52:39.468Z,7.80
2018-02-16T01:55:07.662Z,8.00
2018-02-16T01:57:35.088Z,8.00
2018-02-16T02:00:03.284Z,7.90
2018-02-16T02:02:31.478Z,7.70
2018-02-16T02:04:58.902Z,7.70
2018-02-16T02:07:27.091Z,7.90
2018-02-16T02:09:54.516Z,7.90
2018-02-16T02:12:21.957Z,7.90
2018-02-16T02:14:49.384Z,7.80
2018-02-16T02:17:16.815Z,7.70
2018-02-16T02:19:44.232Z,7.90
2018-02-16T02:22:11.672Z,7.80
2018-02-16T02:24:39.124Z,7.90
2018-02-16T02:27:06.538Z,7.90
2018-02-16T02:29:33.964Z,7.90
2018-02-16T02:32:01.394Z,7.90
2018-02-16T02:34:28.814Z,8.00
2018-02-16T02:36:56.246Z,7.90
2018-02-16T02:39:23.668Z,7.80
2018-02-16T02:41:51.092Z,7.80
2018-02-16T02:44:18.530Z,7.90
2018-02-16T02:46:46.720Z,7.60
2018-02-16T02:49:14.145Z,7.60
2018-02-16T02:51:41.584Z,7.70
2018-02-16T02:54:09.009Z,7.50
2018-02-16T02:56:36.437Z,7.70
2018-02-16T02:59:04.623Z,7.40
2018-02-16T03:01:32.069Z,7.40
2018-02-16T03:03:59.505Z,7.60
2018-02-16T03:06:32.909Z,7.20
2018-02-16T03:09:01.092Z,7.30
2018-02-16T03:11:29.288Z,7.50
2018-02-16T03:13:57.633Z,7.50
2018-02-16T03:16:25.062Z,7.70
2018-02-16T03:18:52.484Z,7.50
2018-02-16T03:21:19.909Z,7.30
2018-02-16T03:23:48.097Z,7.00
2018-02-16T03:26:16.292Z,7.10
2018-02-16T03:28:43.740Z,7.10
2018-02-16T03:31:11.165Z,7.30
2018-02-16T03:33:38.592Z,7.50
2018-02-16T03:36:06.027Z,7.20
2018-02-16T03:38:33.448Z,7.30
2018-02-16T03:41:01.644Z,7.50
2018-02-16T03:43:29.071Z,7.50
2018-02-16T03:45:56.500Z,7.30
2018-02-16T03:48:23.968Z,6.40
2018-02-16T03:50:51.400Z,6.90
2018-02-16T03:53:18.828Z,6.80
2018-02-16T03:55:46.254Z,6.80
2018-02-16T03:58:13.705Z,7.00
2018-02-16T04:00:41.157Z,7.10
2018-02-16T04:03:08.581Z,7.20
2018-02-16T04:05:36.009Z,7.30
2018-02-16T04:08:03.452Z,7.30
2018-02-16T04:10:31.631Z,7.50
2018-02-16T04:12:59.832Z,7.50
2018-02-16T04:15:27.251Z,7.40
2018-02-16T04:17:55.446Z,7.50
2018-02-16T04:20:22.868Z,7.50
2018-02-16T04:22:50.299Z,7.50
2018-02-16T04:25:17.743Z,7.60
2018-02-16T04:27:45.168Z,7.50
2018-02-16T04:30:13.362Z,7.40
2018-02-16T04:32:40.785Z,7.30
2018-02-16T04:35:08.980Z,7.30
2018-02-16T04:37:37.189Z,7.20
2018-02-16T04:40:04.630Z,7.20
2018-02-16T04:42:32.065Z,7.20
2018-02-16T04:44:59.496Z,7.00
2018-02-16T04:47:26.907Z,7.20
2018-02-16T04:49:54.344Z,7.30
2018-02-16T04:52:21.769Z,7.40
2018-02-16T04:54:49.240Z,7.30
2018-02-16T04:57:16.658Z,7.10
2018-02-16T04:59:44.091Z,7.20
2018-02-16T05:02:11.523Z,7.00
2018-02-16T05:04:38.948Z,7.10
2018-02-16T05:07:06.378Z,7.20
2018-02-16T05:09:33.802Z,6.70
2018-02-16T05:12:01.225Z,7.10
2018-02-16T05:14:28.652Z,7.10
2018-02-16T05:16:56.093Z,7.00
2018-02-16T05:19:23.536Z,7.30
2018-02-16T05:21:50.974Z,7.10
2018-02-16T05:24:19.220Z,7.00
2018-02-16T05:26:46.652Z,7.00
2018-02-16T05:29:14.095Z,7.00
2018-02-16T05:31:41.519Z,6.90
2018-02-16T05:34:09.709Z,6.40
2018-02-16T05:36:37.142Z,6.30
2018-02-16T05:39:05.346Z,6.70
2018-02-16T05:41:32.766Z,6.70
2018-02-16T05:44:00.207Z,6.60
2018-02-16T05:46:27.653Z,6.90
2018-02-16T05:48:55.088Z,6.90
2018-02-16T05:51:22.508Z,7.20
2018-02-16T05:53:50.709Z,6.70
2018-02-16T05:56:18.154Z,6.70
2018-02-16T05:58:46.326Z,6.90
2018-02-16T06:01:13.768Z,6.80
2018-02-16T06:03:41.197Z,7.00
2018-02-16T06:06:08.620Z,6.80
2018-02-16T06:08:36.080Z,7.00
2018-02-16T06:11:03.491Z,6.90
2018-02-16T06:13:30.929Z,6.90
2018-02-16T06:15:59.005Z,6.60
2018-02-16T06:18:26.449Z,6.80
2018-02-16T06:20:53.866Z,7.10
2018-02-16T06:23:21.299Z,7.00
2018-02-16T06:25:49.509Z,6.80
2018-02-16T06:28:16.942Z,6.70
2018-02-16T06:30:45.123Z,6.80
2018-02-16T06:33:12.555Z,6.80
2018-02-16T06:35:39.980Z,6.60
2018-02-16T06:38:07.409Z,6.80
2018-02-16T06:40:34.828Z,6.90
2018-02-16T06:43:03.025Z,7.00
2018-02-16T06:45:30.469Z,7.00
2018-02-16T06:47:58.809Z,7.10
2018-02-16T06:50:26.230Z,6.80
2018-02-16T06:52:53.652Z,6.70
2018-02-16T06:55:21.844Z,6.60
2018-02-16T06:57:49.268Z,6.60
2018-02-16T07:00:16.701Z,6.70
2018-02-16T07:02:44.141Z,6.60
2018-02-16T07:05:11.560Z,6.80
2018-02-16T07:07:39.760Z,6.80
2018-02-16T07:10:07.188Z,6.80
2018-02-16T07:12:35.389Z,6.90
2018-02-16T07:15:02.816Z,6.90
2018-02-16T07:17:30.237Z,6.80
2018-02-16T07:19:57.670Z,6.80
2018-02-16T07:22:25.157Z,6.80
2018-02-16T07:24:52.576Z,6.30
2018-02-16T07:27:20.014Z,6.90
2018-02-16T07:29:48.342Z,6.90
2018-02-16T07:32:15.783Z,6.90
2018-02-16T07:34:43.219Z,7.20
2018-02-16T07:37:10.656Z,7.50
2018-02-16T07:39:38.856Z,7.60
2018-02-16T07:42:06.284Z,7.60
2018-02-16T07:44:34.496Z,7.90
2018-02-16T07:47:01.924Z,7.90
2018-02-16T07:49:30.138Z,7.60
2018-02-16T07:51:57.557Z,7.60
2018-02-16T07:54:25.753Z,7.80
2018-02-16T07:56:53.185Z,7.80
2018-02-16T07:59:20.612Z,8.10
2018-02-16T08:01:48.045Z,8.10
2018-02-16T08:04:15.469Z,8.60
2018-02-16T08:06:43.652Z,9.40
2018-02-16T08:09:11.076Z,9.40
2018-02-16T08:11:38.500Z,9.80
2018-02-16T08:14:05.945Z,10.60
2018-02-16T08:16:33.368Z,10.60
2018-02-16T08:19:01.569Z,11.20
2018-02-16T08:21:29.013Z,11.20
2018-02-16T08:23:57.211Z,10.00
2018-02-16T08:26:25.416Z,9.50
2018-02-16T08:28:52.839Z,9.50
2018-02-16T08:31:20.288Z,8.10
2018-02-16T08:33:48.458Z,8.40
2018-02-16T08:36:15.899Z,8.40
2018-02-16T08:38:44.124Z,8.00
2018-02-16T08:41:11.564Z,8.00
2018-02-16T08:43:39.010Z,7.60
2018-02-16T08:46:06.476Z,8.10
2018-02-16T08:48:33.901Z,9.00
2018-02-16T08:51:02.106Z,10.60
2018-02-16T08:53:29.561Z,10.60
2018-02-16T08:55:57.032Z,11.30
2018-02-16T08:58:24.453Z,13.00
2018-02-16T09:00:52.654Z,14.20
2018-02-16T09:03:20.114Z,14.20
2018-02-16T09:05:47.532Z,14.90
2018-02-16T09:08:15.732Z,15.40
2018-02-16T09:10:43.172Z,15.40
2018-02-16T09:13:11.375Z,16.90
2018-02-16T09:15:38.831Z,16.80
2018-02-16T09:18:06.261Z,18.00
2018-02-16T09:20:34.466Z,18.00
2018-02-16T09:23:01.900Z,17.90
2018-02-16T09:25:30.132Z,19.00
2018-02-16T09:27:57.565Z,18.90
2018-02-16T09:30:25.002Z,17.60
2018-02-16T09:32:52.433Z,18.00
2018-02-16T09:35:21.370Z,19.20
2018-02-16T09:37:48.819Z,19.20
2018-02-16T09:40:16.269Z,19.40
2018-02-16T09:42:43.721Z,18.80
2018-02-16T09:45:11.145Z,18.10
2018-02-16T09:47:39.367Z,19.80
2018-02-16T09:50:06.815Z,19.80
2018-02-16T09:52:34.243Z,19.00
2018-02-16T09:55:03.252Z,17.10
2018-02-16T09:57:30.691Z,17.10
2018-02-16T09:59:58.131Z,18.60
2018-02-16T10:02:25.570Z,19.90
2018-02-16T10:04:53.004Z,18.90
2018-02-16T10:07:20.469Z,19.00
2018-02-16T10:09:47.895Z,19.10
2018-02-16T10:12:16.120Z,18.50
2018-02-16T10:14:43.552Z,18.50
2018-02-16T10:17:10.988Z,16.60
2018-02-16T10:19:38.437Z,17.50
2018-02-16T10:22:06.637Z,16.10
2018-02-16T10:24:34.068Z,16.10
2018-02-16T10:27:02.281Z,14.60
2018-02-16T10:29:29.713Z,14.60
2018-02-16T10:31:57.914Z,14.40
2018-02-16T10:34:25.335Z,14.40
2018-02-16T10:36:53.579Z,13.40
2018-02-16T10:39:21.016Z,13.40
2018-02-16T10:41:48.492Z,14.80
2018-02-16T10:44:15.895Z,14.60
2018-02-16T10:46:43.331Z,14.90
2018-02-16T10:49:11.544Z,13.80
2018-02-16T10:51:38.980Z,13.80
2018-02-16T10:54:06.404Z,12.60
2018-02-16T10:56:33.856Z,11.70
2018-02-16T10:59:01.289Z,11.40
2018-02-16T11:01:28.729Z,11.80
2018-02-16T11:03:58.980Z,11.70
2018-02-16T11:06:32.165Z,12.00
2018-02-16T11:09:05.560Z,11.00
2018-02-16T11:11:33.756Z,10.70
2018-02-16T11:14:01.192Z,10.60
2018-02-16T11:16:28.630Z,10.80
2018-02-16T11:18:56.077Z,10.80
2018-02-16T11:21:23.522Z,10.20
2018-02-16T11:23:51.033Z,10.30
2018-02-16T11:26:18.434Z,10.30
2018-02-16T11:28:46.640Z,11.20
2018-02-16T11:31:14.069Z,11.20
2018-02-16T11:33:42.905Z,11.00
2018-02-16T11:36:10.355Z,11.00
2018-02-16T11:38:37.780Z,10.70
2018-02-16T11:41:05.212Z,10.50
2018-02-16T11:43:33.416Z,10.50
2018-02-16T11:46:00.891Z,10.50
2018-02-16T11:48:28.317Z,11.90
2018-02-16T11:50:56.559Z,11.20
2018-02-16T11:53:23.992Z,11.20
2018-02-16T11:55:51.451Z,11.10
2018-02-16T11:58:18.879Z,11.40
2018-02-16T12:00:46.306Z,11.10
2018-02-16T12:03:13.744Z,10.80
2018-02-16T12:05:41.172Z,10.90
2018-02-16T12:08:08.726Z,11.70
2018-02-16T12:10:36.141Z,12.70
2018-02-16T12:13:04.338Z,13.40
2018-02-16T12:15:31.789Z,13.40
2018-02-16T12:17:59.982Z,14.20
2018-02-16T12:20:27.400Z,13.60
2018-02-16T12:22:55.622Z,12.60
2018-02-16T12:25:23.039Z,12.60
2018-02-16T12:27:51.244Z,13.60
2018-02-16T12:30:18.674Z,13.60
2018-02-16T12:32:46.874Z,14.10
2018-02-16T12:35:14.315Z,14.10
2018-02-16T12:37:42.517Z,12.50
2018-02-16T12:40:09.935Z,12.50
2018-02-16T12:42:38.190Z,12.70
2018-02-16T12:45:05.610Z,12.70
2018-02-16T12:47:33.170Z,13.10
2018-02-16T12:50:00.576Z,12.30
2018-02-16T12:52:28.802Z,12.90
2018-02-16T12:54:59.728Z,12.90
2018-02-16T12:57:27.158Z,13.00
2018-02-16T12:59:55.385Z,15.10
2018-02-16T13:02:22.838Z,15.10
2018-02-16T13:04:50.268Z,15.50
2018-02-16T13:07:17.695Z,16.40
2018-02-16T13:09:45.899Z,17.40
2018-02-16T13:12:13.328Z,17.50
2018-02-16T13:14:41.531Z,17.80
2018-02-16T13:17:08.964Z,17.80
2018-02-16T13:19:37.205Z,18.40
2018-02-16T13:22:04.640Z,18.40
2018-02-16T13:24:32.067Z,18.80
2018-02-16T13:27:00.204Z,20.40
2018-02-16T13:29:27.634Z,21.30
2018-02-16T13:31:55.074Z,20.70
2018-02-16T13:34:22.491Z,21.10
2018-02-16T13:36:49.929Z,22.10
2018-02-16T13:39:17.366Z,21.50
2018-02-16T13:41:45.604Z,19.10
2018-02-16T13:44:13.816Z,18.00
2018-02-16T13:46:41.250Z,17.90
2018-02-16T13:49:08.695Z,17.30
2018-02-16T13:51:36.880Z,16.00
2018-02-16T13:54:04.326Z,16.00
2018-02-16T13:56:32.557Z,14.40
2018-02-16T13:59:00.324Z,14.40
2018-02-16T14:01:27.752Z,13.80
2018-02-16T14:03:55.204Z,13.30
2018-02-16T14:06:22.636Z,12.60
2018-02-16T14:08:50.853Z,12.50
2018-02-16T14:11:18.285Z,12.40
2018-02-16T14:13:45.747Z,12.10
2018-02-16T14:16:13.176Z,11.70
2018-02-16T14:18:41.390Z,11.90
2018-02-16T14:21:08.813Z,11.90
2018-02-16T14:23:37.022Z,12.50
2018-02-16T14:26:04.448Z,12.50
2018-02-16T14:28:32.652Z,12.20
2018-02-16T14:31:00.342Z,12.10
2018-02-16T14:33:27.786Z,11.50
2018-02-16T14:35:55.213Z,11.40
2018-02-16T14:38:22.644Z,11.30
2018-02-16T14:40:50.855Z,11.10
2018-02-16T14:43:18.315Z,11.00
2018-02-16T14:45:45.746Z,11.60
2018-02-16T14:48:13.942Z,12.00
2018-02-16T14:50:41.386Z,12.00
2018-02-16T14:53:09.589Z,12.50
2018-02-16T14:55:37.065Z,12.50
2018-02-16T14:58:04.512Z,11.90
2018-02-16T15:00:31.998Z,11.60
2018-02-16T15:03:00.356Z,11.90
2018-02-16T15:05:27.785Z,12.50
2018-02-16T15:07:55.211Z,12.40
2018-02-16T15:10:23.428Z,12.20
2018-02-16T15:12:50.889Z,12.20
2018-02-16T15:15:18.320Z,12.50
2018-02-16T15:17:45.758Z,12.40
2018-02-16T15:20:13.196Z,12.90
2018-02-16T15:22:40.629Z,12.50
2018-02-16T15:25:08.087Z,12.10
2018-02-16T15:27:35.528Z,12.70
2018-02-16T15:30:02.950Z,12.60
2018-02-16T15:32:30.397Z,12.20
2018-02-16T15:34:58.619Z,11.80
2018-02-16T15:37:26.036Z,11.80
2018-02-16T15:39:54.285Z,12.70
2018-02-16T15:42:21.725Z,12.70
2018-02-16T15:44:51.532Z,12.60
2018-02-16T15:47:18.977Z,12.80
2018-02-16T15:49:46.404Z,12.30
2018-02-16T15:52:14.650Z,13.00
2018-02-16T15:54:42.106Z,13.00
2018-02-16T15:57:09.543Z,13.40
2018-02-16T15:59:37.651Z,13.50
2018-02-16T16:02:05.101Z,13.60
2018-02-16T16:04:32.541Z,13.50
2018-02-16T16:07:00.521Z,13.20
2018-02-16T16:09:27.964Z,13.20
2018-02-16T16:11:55.489Z,13.40
2018-02-16T16:14:22.937Z,13.40
2018-02-16T16:16:50.447Z,13.30
2018-02-16T16:19:17.896Z,13.00
2018-02-16T16:21:45.322Z,13.10
2018-02-16T16:24:12.760Z,13.30
2018-02-16T16:26:40.970Z,13.20
2018-02-16T16:29:08.405Z,13.20
2018-02-16T16:31:35.834Z,13.10
2018-02-16T16:34:03.261Z,13.00
2018-02-16T16:36:30.712Z,13.00
2018-02-16T16:38:58.156Z,12.90
2018-02-16T16:41:25.628Z,12.70
2018-02-16T16:43:53.080Z,12.70
2018-02-16T16:46:20.657Z,12.50
2018-02-16T16:48:48.084Z,12.40
2018-02-16T16:51:15.519Z,12.20
2018-02-16T16:53:42.960Z,12.10
2018-02-16T16:56:11.160Z,11.80
2018-02-16T16:58:38.580Z,11.70
2018-02-16T17:01:06.037Z,11.60
2018-02-16T17:03:33.480Z,11.50
2018-02-16T17:06:00.922Z,11.40
2018-02-16T17:08:29.122Z,11.20
2018-02-16T17:10:56.576Z,11.20
2018-02-16T17:13:24.029Z,11.10
2018-02-16T17:15:51.489Z,11.10
2018-02-16T17:18:18.933Z,11.00
2018-02-16T17:20:46.412Z,10.90
2018-02-16T17:23:13.825Z,10.80
2018-02-16T17:25:41.300Z,10.70
2018-02-16T17:28:08.739Z,10.60
2018-02-16T17:30:36.184Z,10.50
2018-02-16T17:33:03.615Z,10.40
2018-02-16T17:35:31.828Z,10.30
2018-02-16T17:37:59.252Z,10.30
2018-02-16T17:40:27.457Z,10.30
2018-02-16T17:42:54.926Z,10.30
2018-02-16T17:45:22.367Z,10.20
2018-02-16T17:47:49.808Z,10.20
2018-02-16T17:50:18.009Z,10.10
2018-02-16T17:52:45.458Z,10.10
2018-02-16T17:55:12.896Z,10.10
2018-02-16T17:57:41.094Z,10.00
2018-02-16T18:00:08.533Z,10.00
2018-02-16T18:02:35.971Z,10.00
2018-02-16T18:05:04.193Z,9.80
2018-02-16T18:07:31.606Z,9.70
2018-02-16T18:10:00.728Z,9.60
2018-02-16T18:12:28.163Z,9.60
2018-02-16T18:14:56.363Z,9.50
2018-02-16T18:17:24.096Z,9.50
2018-02-16T18:19:51.501Z,9.50
2018-02-16T18:22:18.932Z,9.40
2018-02-16T18:24:46.380Z,9.40
2018-02-16T18:27:14.582Z,9.30
2018-02-16T18:29:42.008Z,9.30
2018-02-16T18:32:10.214Z,9.10
2018-02-16T18:34:37.637Z,9.10
2018-02-16T18:37:05.848Z,9.00
2018-02-16T18:39:33.279Z,9.00
2018-02-16T18:42:00.902Z,9.10
2018-02-16T18:44:28.329Z,9.20
2018-02-16T18:46:55.753Z,9.10
2018-02-16T18:49:23.177Z,8.90
2018-02-16T18:51:50.608Z,8.60
2018-02-16T18:54:18.047Z,8.60
2018-02-16T18:59:38.477Z,8.70
2018-02-16T19:02:05.901Z,8.70
2018-02-16T19:04:33.328Z,8.80
2018-02-16T19:07:01.392Z,8.70
2018-02-16T19:09:28.808Z,8.70
2018-02-16T19:11:56.284Z,8.60
2018-02-16T19:14:23.738Z,8.40
2018-02-16T19:16:51.160Z,8.50
2018-02-16T19:19:18.799Z,8.50
2018-02-16T19:21:47.030Z,8.50
2018-02-16T19:24:14.456Z,8.50
2018-02-16T19:26:41.903Z,8.50
2018-02-16T19:29:09.328Z,8.50
2018-02-16T19:31:36.764Z,8.50
2018-02-16T19:34:04.207Z,8.40
2018-02-16T19:36:31.956Z,8.20
2018-02-16T19:38:59.455Z,8.00
2018-02-16T19:41:27.259Z,8.10
2018-02-16T19:43:55.051Z,8.10
2018-02-16T19:46:22.600Z,8.20
2018-02-16T19:48:50.000Z,8.20
2018-02-16T19:51:18.384Z,8.10
2018-02-16T19:53:46.486Z,7.90
2018-02-16T19:56:14.141Z,8.00
2018-02-16T19:58:41.984Z,8.00
2018-02-16T20:01:09.414Z,8.00
2018-02-16T20:03:36.915Z,7.90
2018-02-16T20:06:04.302Z,7.80
2018-02-16T20:08:31.726Z,7.80
2018-02-16T20:10:59.157Z,8.00
2018-02-16T20:13:26.990Z,8.10
2018-02-16T20:15:54.458Z,8.20
2018-02-16T20:18:22.280Z,8.20
2018-02-16T20:20:49.756Z,8.10
2018-02-16T20:23:17.961Z,8.10
2018-02-16T20:25:45.396Z,8.00
2018-02-16T20:28:12.871Z,7.90
2018-02-16T20:30:41.256Z,7.80
2018-02-16T20:33:08.713Z,7.60
2018-02-16T20:35:36.414Z,7.40
2018-02-16T20:38:04.845Z,7.40
2018-02-16T20:40:33.038Z,7.40
2018-02-16T20:43:00.779Z,7.40
2018-02-16T20:45:28.257Z,7.40
2018-02-16T20:47:55.739Z,7.50
2018-02-16T20:50:23.178Z,7.50
2018-02-16T20:52:50.632Z,7.40
2018-02-16T20:55:18.099Z,7.30
2018-02-16T20:57:45.531Z,7.30
2018-02-16T21:00:12.985Z,7.40
2018-02-16T21:02:40.430Z,7.30
2018-02-16T21:05:08.643Z,7.30
2018-02-16T21:07:36.069Z,7.20
2018-02-16T21:10:03.510Z,7.30
2018-02-16T21:12:30.954Z,7.30
2018-02-16T21:14:58.376Z,7.50
2018-02-16T21:17:25.804Z,7.50
2018-02-16T21:19:53.248Z,7.50
2018-02-16T21:22:21.456Z,7.30
2018-02-16T21:24:48.911Z,7.30
2018-02-16T21:27:16.347Z,7.20
2018-02-16T21:29:44.694Z,7.10
2018-02-16T21:32:12.165Z,7.00
2018-02-16T21:34:40.381Z,6.80
2018-02-16T21:37:07.816Z,6.80
2018-02-16T21:39:35.256Z,6.70
2018-02-16T21:42:03.445Z,6.50
2018-02-16T21:44:30.890Z,6.50
2018-02-16T21:46:58.352Z,6.40
2018-02-16T21:49:26.553Z,6.40
2018-02-16T21:51:53.977Z,6.40
2018-02-16T21:54:22.171Z,6.20
2018-02-16T21:56:50.396Z,6.20
2018-02-16T21:59:17.812Z,6.20
2018-02-16T22:01:45.349Z,6.30
2018-02-16T22:04:13.564Z,6.10
2018-02-16T22:06:40.984Z,6.10
2018-02-16T22:09:09.190Z,6.10
2018-02-16T22:11:36.624Z,6.10
2018-02-16T22:14:04.801Z,6.20
2018-02-16T22:16:32.230Z,6.20
2018-02-16T22:18:59.661Z,6.20
2018-02-16T22:21:27.097Z,6.30
2018-02-16T22:23:54.523Z,6.30
2018-02-16T22:26:21.953Z,6.50
2018-02-16T22:28:49.377Z,6.80
2018-02-16T22:31:16.821Z,7.00
2018-02-16T22:33:44.232Z,7.10
2018-02-16T22:36:12.436Z,7.00
2018-02-16T22:38:39.864Z,6.90
2018-02-16T22:41:08.074Z,6.80
2018-02-16T22:43:35.510Z,6.80
2018-02-16T22:46:03.695Z,6.70
2018-02-16T22:48:31.124Z,6.70
2018-02-16T22:50:58.552Z,6.60
2018-02-16T22:53:25.998Z,6.50
2018-02-16T22:55:53.443Z,6.50
2018-02-16T22:58:20.949Z,6.30
2018-02-16T23:00:48.425Z,6.30
2018-02-16T23:03:16.630Z,6.20
2018-02-16T23:05:44.056Z,6.20
2018-02-16T23:08:12.266Z,6.10
2018-02-16T23:10:39.704Z,6.10
2018-02-16T23:13:07.885Z,6.00
2018-02-16T23:15:35.317Z,6.00
2018-02-16T23:18:03.549Z,5.90
2018-02-16T23:20:30.971Z,5.90
2018-02-16T23:22:58.409Z,5.80
2018-02-16T23:25:26.591Z,5.80
2018-02-16T23:27:54.795Z,5.70
2018-02-16T23:30:22.217Z,5.70
2018-02-16T23:32:50.428Z,5.70
2018-02-16T23:35:17.844Z,5.60
2018-02-16T23:37:45.536Z,5.70
2018-02-16T23:40:12.973Z,5.60
2018-02-16T23:42:41.146Z,5.50
2018-02-16T23:45:08.564Z,5.50
2018-02-16T23:47:36.012Z,5.50
2018-02-16T23:50:04.233Z,5.50
2018-02-16T23:52:31.671Z,5.50
2018-02-16T23:54:59.093Z,5.50
2018-02-16T23:57:28.201Z,5.30
2018-02-16T23:59:56.398Z,5.20
